Time;durP1;ratioP1;P1;durP2;ratioP2;P2;SDS_P1;SDS_P2;PMS_P1;PMS_P2;Temp;Humidity;BMP_temperature;BMP_pressure;BME280_temperature;BME280_humidity;BME280_pressure;Samples;Min_cycle;Max_cycle;Signal;HPM_P1;HPM_P2
2022/12/11 00:01:56;;;;;;;;;;;21.10;59.30;;;;;;1524232;76;1164;-69
2022/12/11 00:03:58;;;;;;;;;;;21.10;59.30;;;;;;1525208;76;1932;-72
2022/12/11 00:06:00;;;;;;;;;;;21.10;59.30;;;;;;1524689;77;702;-71
2022/12/11 00:08:01;;;;;;;;;;;21.20;59.30;;;;;;1536558;76;1465;-71
2022/12/11 00:10:04;;;;;;;;;;;21.20;59.30;;;;;;1532170;76;747;-71
2022/12/11 00:12:06;;;;;;;;;;;21.20;59.30;;;;;;1535730;76;1197;-70
2022/12/11 00:14:08;;;;;;;;;;;21.10;59.30;;;;;;1534201;76;742;-70
2022/12/11 00:16:10;;;;;;;;;;;21.20;59.20;;;;;;1526312;76;746;-72
2022/12/11 00:18:12;;;;;;;;;;;21.10;59.20;;;;;;1547302;76;730;-70
2022/12/11 00:20:15;;;;;;;;;;;21.10;59.30;;;;;;1522280;76;690;-71
2022/12/11 00:22:17;;;;;;;;;;;21.10;59.20;;;;;;1539194;76;1176;-72
2022/12/11 00:24:18;;;;;;;;;;;21.10;59.20;;;;;;1537779;76;1939;-69
2022/12/11 00:26:20;;;;;;;;;;;21.10;59.20;;;;;;1544561;76;616;-70
2022/12/11 00:28:22;;;;;;;;;;;21.10;59.20;;;;;;1536860;76;757;-70
2022/12/11 00:30:24;;;;;;;;;;;21.10;59.20;;;;;;1536478;76;777;-70
2022/12/11 00:32:26;;;;;;;;;;;21.10;59.20;;;;;;1529793;76;1184;-71
2022/12/11 00:34:28;;;;;;;;;;;21.10;59.20;;;;;;1522047;76;719;-71
2022/12/11 00:36:30;;;;;;;;;;;21.00;59.10;;;;;;1522808;76;683;-71
2022/12/11 00:38:32;;;;;;;;;;;21.00;59.10;;;;;;1524581;76;719;-72
2022/12/11 00:40:34;;;;;;;;;;;21.10;59.20;;;;;;1517928;76;702;-70
2022/12/11 00:42:36;;;;;;;;;;;21.10;59.10;;;;;;1533959;76;1154;-71
2022/12/11 00:44:38;;;;;;;;;;;21.10;59.20;;;;;;1525916;76;1936;-71
2022/12/11 00:46:40;;;;;;;;;;;21.10;59.20;;;;;;1536744;76;746;-71
2022/12/11 00:48:42;;;;;;;;;;;21.10;59.20;;;;;;1535574;76;756;-71
2022/12/11 00:50:43;;;;;;;;;;;21.10;59.10;;;;;;1525007;76;711;-71
2022/12/11 00:52:45;;;;;;;;;;;21.10;59.20;;;;;;1543916;76;1166;-71
2022/12/11 00:54:47;;;;;;;;;;;21.10;59.20;;;;;;1534101;76;730;-71
2022/12/11 00:56:49;;;;;;;;;;;21.10;59.20;;;;;;1529995;76;819;-72
2022/12/11 00:58:51;;;;;;;;;;;21.10;59.20;;;;;;1525788;76;758;-73
2022/12/11 01:00:53;;;;;;;;;;;21.10;59.20;;;;;;1534284;76;794;-69
2022/12/11 01:02:55;;;;;;;;;;;21.00;59.10;;;;;;1519565;76;1161;-71
2022/12/11 01:04:57;;;;;;;;;;;21.00;59.10;;;;;;1528898;76;1946;-70
2022/12/11 01:06:59;;;;;;;;;;;21.10;59.20;;;;;;1537340;76;712;-71
2022/12/11 01:11:20;;;;;;;;;;;21.10;59.10;;;;;;1538032;76;773;-69
2022/12/11 01:13:22;;;;;;;;;;;21.10;59.10;;;;;;1537636;76;1138;-71
2022/12/11 01:15:25;;;;;;;;;;;21.10;59.10;;;;;;1528786;76;722;-72
2022/12/11 01:17:27;;;;;;;;;;;21.10;59.10;;;;;;1532460;76;731;-72
2022/12/11 01:19:29;;;;;;;;;;;21.10;59.10;;;;;;1532207;76;807;-71
2022/12/11 01:21:31;;;;;;;;;;;21.10;59.10;;;;;;1540020;76;1135;-71
2022/12/11 01:23:33;;;;;;;;;;;21.10;59.10;;;;;;1532924;76;720;-71
2022/12/11 01:25:36;;;;;;;;;;;21.00;59.00;;;;;;1524930;76;1949;-71
2022/12/11 01:27:38;;;;;;;;;;;21.10;59.10;;;;;;1535819;76;690;-70
2022/12/11 01:29:40;;;;;;;;;;;21.10;59.10;;;;;;1541771;76;576;-71
2022/12/11 01:31:42;;;;;;;;;;;21.10;59.00;;;;;;1527965;76;1149;-72
2022/12/11 01:33:44;;;;;;;;;;;21.10;59.10;;;;;;1532246;76;716;-71
2022/12/11 01:35:46;;;;;;;;;;;21.10;59.10;;;;;;1535235;76;721;-71
2022/12/11 01:37:48;;;;;;;;;;;21.00;59.00;;;;;;1535410;76;726;-71
2022/12/11 01:39:50;;;;;;;;;;;21.00;59.00;;;;;;1524292;76;735;-71
2022/12/11 01:41:53;;;;;;;;;;;21.10;59.10;;;;;;1541180;76;1146;-71
2022/12/11 01:43:56;;;;;;;;;;;21.10;59.10;;;;;;1536557;77;1141;-71
2022/12/11 01:45:58;;;;;;;;;;;21.10;59.10;;;;;;1529898;76;1912;-70
2022/12/11 01:48:01;;;;;;;;;;;21.00;59.00;;;;;;1519136;76;645;-70
2022/12/11 01:50:03;;;;;;;;;;;21.00;59.00;;;;;;1523519;76;1103;-71
2022/12/11 01:52:06;;;;;;;;;;;21.00;59.00;;;;;;1531017;76;1178;-71
2022/12/11 01:54:08;;;;;;;;;;;21.10;59.00;;;;;;1533332;76;764;-71
2022/12/11 01:56:10;;;;;;;;;;;21.10;59.10;;;;;;1537382;76;757;-71
2022/12/11 01:58:12;;;;;;;;;;;21.10;59.00;;;;;;1536709;76;798;-72
2022/12/11 02:00:14;;;;;;;;;;;21.00;59.00;;;;;;1536640;76;1497;-71
2022/12/11 02:02:20;;;;;;;;;;;21.10;59.00;;;;;;1536947;76;1186;-71
2022/12/11 02:04:22;;;;;;;;;;;21.00;59.00;;;;;;1529816;76;750;-71
2022/12/11 02:06:34;;;;;;;;;;;21.10;59.10;;;;;;1536877;76;1930;-71
2022/12/11 02:08:36;;;;;;;;;;;21.20;59.00;;;;;;1539145;76;807;-71
2022/12/11 02:10:51;;;;;;;;;;;21.00;59.00;;;;;;1536196;76;695;-71
2022/12/11 02:13:01;;;;;;;;;;;21.00;59.00;;;;;;1534361;76;1134;-70
2022/12/11 02:15:04;;;;;;;;;;;21.10;59.10;;;;;;1541348;76;1535;-71
2022/12/11 02:17:06;;;;;;;;;;;21.10;59.00;;;;;;1535259;77;1214;-71
2022/12/11 02:19:10;;;;;;;;;;;21.10;59.00;;;;;;1504689;78;741;-71
2022/12/11 02:21:25;;;;;;;;;;;21.00;58.90;;;;;;1529522;76;1091;-71
2022/12/11 02:23:37;;;;;;;;;;;21.00;58.90;;;;;;1536229;76;1193;-71
2022/12/11 02:25:50;;;;;;;;;;;21.10;59.00;;;;;;1530973;77;1935;-71
2022/12/11 02:27:55;;;;;;;;;;;21.00;58.90;;;;;;1536123;77;774;-72
2022/12/11 02:30:01;;;;;;;;;;;21.10;59.00;;;;;;1522891;76;956;-71
2022/12/11 02:32:05;;;;;;;;;;;21.00;58.90;;;;;;1538470;76;1178;-71
2022/12/11 02:34:08;;;;;;;;;;;21.00;59.00;;;;;;1525754;76;718;-70
2022/12/11 02:36:10;;;;;;;;;;;21.10;58.90;;;;;;1535840;76;710;-71
2022/12/11 02:38:14;;;;;;;;;;;21.00;58.90;;;;;;1537090;76;713;-71
2022/12/11 02:40:16;;;;;;;;;;;21.00;58.90;;;;;;1546229;76;739;-72
2022/12/11 02:42:18;;;;;;;;;;;21.00;58.90;;;;;;1523515;76;1139;-71
2022/12/11 02:44:21;;;;;;;;;;;21.10;59.00;;;;;;1531493;76;742;-71
2022/12/11 02:46:23;;;;;;;;;;;21.00;58.90;;;;;;1529555;76;1927;-71
2022/12/11 02:48:25;;;;;;;;;;;21.10;58.90;;;;;;1529340;76;730;-70
2022/12/11 02:50:27;;;;;;;;;;;21.00;58.90;;;;;;1542050;76;701;-71
2022/12/11 02:52:29;;;;;;;;;;;21.10;59.00;;;;;;1557968;70;1996;-75
2022/12/11 02:54:32;;;;;;;;;;;21.00;58.80;;;;;;1607839;72;1020;-74
2022/12/11 02:56:35;;;;;;;;;;;21.10;58.90;;;;;;1603777;72;1544;-75
2022/12/11 02:58:37;;;;;;;;;;;21.10;58.90;;;;;;1595900;72;650;-75
2022/12/11 03:00:39;;;;;;;;;;;21.00;58.90;;;;;;1603846;73;738;-75
2022/12/11 03:02:41;;;;;;;;;;;21.00;58.90;;;;;;1599599;72;1211;-74
2022/12/11 03:04:43;;;;;;;;;;;21.00;58.90;;;;;;1576793;73;995;-75
2022/12/11 03:06:46;;;;;;;;;;;21.00;58.90;;;;;;1582479;73;1925;-73
2022/12/11 03:08:50;;;;;;;;;;;21.00;58.90;;;;;;1583939;73;709;-74
2022/12/11 03:10:52;;;;;;;;;;;21.00;58.90;;;;;;1573921;74;1081;-74
2022/12/11 03:12:54;;;;;;;;;;;21.10;59.00;;;;;;1573699;74;1135;-75
2022/12/11 03:14:58;;;;;;;;;;;21.00;59.00;;;;;;1580710;73;712;-76
2022/12/11 03:17:02;;;;;;;;;;;21.00;58.90;;;;;;1587922;73;1085;-74
2022/12/11 03:19:06;;;;;;;;;;;21.10;59.00;;;;;;1560535;73;1664;-73
2022/12/11 03:21:09;;;;;;;;;;;21.00;58.90;;;;;;1579859;74;610;-75
2022/12/11 03:23:22;;;;;;;;;;;21.00;58.90;;;;;;1583418;73;1182;-76
2022/12/11 03:25:28;;;;;;;;;;;21.10;59.00;;;;;;1581774;74;1929;-75
2022/12/11 03:27:32;;;;;;;;;;;21.10;59.00;;;;;;1585250;74;1123;-75
2022/12/11 03:29:37;;;;;;;;;;;21.00;58.90;;;;;;1571429;73;692;-71
2022/12/11 03:31:41;;;;;;;;;;;21.00;58.80;;;;;;1569287;73;792;-76
2022/12/11 03:33:43;;;;;;;;;;;21.00;58.80;;;;;;1585272;73;1194;-75
2022/12/11 03:35:47;;;;;;;;;;;21.10;58.90;;;;;;1581524;73;744;-75
2022/12/11 03:37:49;;;;;;;;;;;21.00;58.70;;;;;;1582913;73;753;-75
2022/12/11 03:39:51;;;;;;;;;;;21.10;58.80;;;;;;1573369;74;756;-75
2022/12/11 03:41:53;;;;;;;;;;;21.10;58.80;;;;;;1572581;74;674;-74
2022/12/11 03:43:55;;;;;;;;;;;21.10;58.70;;;;;;1581737;73;649;-74
2022/12/11 03:45:57;;;;;;;;;;;21.10;58.70;;;;;;1567807;73;1939;-74
2022/12/11 03:47:59;;;;;;;;;;;21.10;58.70;;;;;;1578890;73;844;-75
2022/12/11 03:50:01;;;;;;;;;;;21.10;58.70;;;;;;1584221;73;807;-75
2022/12/11 03:52:03;;;;;;;;;;;21.10;58.70;;;;;;1591384;73;1531;-75
2022/12/11 03:54:05;;;;;;;;;;;21.10;58.70;;;;;;1561109;73;727;-74
2022/12/11 03:56:07;;;;;;;;;;;21.10;58.60;;;;;;1566462;73;734;-75
2022/12/11 03:58:09;;;;;;;;;;;21.10;58.60;;;;;;1577299;73;703;-75
2022/12/11 04:00:12;;;;;;;;;;;21.10;58.60;;;;;;1572459;73;728;-74
2022/12/11 04:02:14;;;;;;;;;;;21.10;58.60;;;;;;1568996;74;1143;-75
2022/12/11 04:04:16;;;;;;;;;;;21.10;58.60;;;;;;1585077;73;718;-75
2022/12/11 04:06:18;;;;;;;;;;;21.10;58.60;;;;;;1593629;73;1944;-74
2022/12/11 04:08:20;;;;;;;;;;;21.20;58.60;;;;;;1588955;73;719;-75
2022/12/11 04:10:22;;;;;;;;;;;21.10;58.60;;;;;;1594564;73;699;-75
2022/12/11 04:12:24;;;;;;;;;;;21.10;58.60;;;;;;1581949;73;1122;-74
2022/12/11 04:16:45;;;;;;;;;;;21.20;58.50;;;;;;1568489;73;1863;-74
2022/12/11 04:25:47;;;;;;;;;;;21.20;58.50;;;;;;1585320;73;1898;-74
2022/12/11 04:27:49;;;;;;;;;;;21.20;58.40;;;;;;1565502;73;749;-75
2022/12/11 04:29:50;;;;;;;;;;;21.10;58.50;;;;;;1582846;74;730;-75
2022/12/11 04:31:52;;;;;;;;;;;21.20;58.50;;;;;;1567164;73;799;-74
2022/12/11 04:33:54;;;;;;;;;;;21.30;58.60;;;;;;1562154;73;658;-73
2022/12/11 04:35:59;;;;;;;;;;;21.30;58.60;;;;;;1568207;73;739;-75
2022/12/11 04:38:01;;;;;;;;;;;21.30;58.60;;;;;;1585751;73;686;-74
2022/12/11 04:40:04;;;;;;;;;;;21.20;58.40;;;;;;1572691;73;706;-74
2022/12/11 04:42:05;;;;;;;;;;;21.30;58.60;;;;;;1564976;73;1147;-74
2022/12/11 04:44:07;;;;;;;;;;;21.30;58.60;;;;;;1573660;74;740;-74
2022/12/11 04:46:11;;;;;;;;;;;21.30;58.50;;;;;;1596138;73;1939;-75
2022/12/11 04:48:13;;;;;;;;;;;21.20;58.40;;;;;;1576571;73;1468;-72
2022/12/11 04:50:15;;;;;;;;;;;21.30;58.50;;;;;;1567715;73;695;-74
2022/12/11 04:52:17;;;;;;;;;;;21.30;58.50;;;;;;1578196;73;1166;-73
2022/12/11 04:54:19;;;;;;;;;;;21.30;58.40;;;;;;1581071;73;712;-75
2022/12/11 04:56:21;;;;;;;;;;;21.30;58.50;;;;;;1585498;73;733;-75
2022/12/11 04:58:23;;;;;;;;;;;21.30;58.50;;;;;;1586324;73;724;-73
2022/12/11 05:00:26;;;;;;;;;;;21.30;58.50;;;;;;1588180;73;720;-75
2022/12/11 05:02:27;;;;;;;;;;;21.30;58.50;;;;;;1565696;73;1183;-75
2022/12/11 05:04:33;;;;;;;;;;;21.30;58.50;;;;;;1578218;73;711;-77
2022/12/11 05:06:35;;;;;;;;;;;21.30;58.50;;;;;;1577784;73;1944;-74
2022/12/11 05:08:37;;;;;;;;;;;21.30;58.40;;;;;;1585178;73;710;-74
2022/12/11 05:10:39;;;;;;;;;;;21.30;58.40;;;;;;1582462;73;743;-75
2022/12/11 05:12:40;;;;;;;;;;;21.30;58.40;;;;;;1584511;73;1119;-74
2022/12/11 05:14:43;;;;;;;;;;;21.30;58.40;;;;;;1575063;74;713;-74
2022/12/11 05:16:45;;;;;;;;;;;21.30;58.40;;;;;;1581353;73;737;-74
2022/12/11 05:18:47;;;;;;;;;;;21.30;58.40;;;;;;1578083;73;720;-75
2022/12/11 05:21:01;;;;;;;;;;;21.30;58.40;;;;;;1581740;74;698;-75
2022/12/11 05:23:03;;;;;;;;;;;21.30;58.40;;;;;;1574337;73;1210;-75
2022/12/11 05:25:05;;;;;;;;;;;21.30;58.40;;;;;;1584902;73;710;-75
2022/12/11 05:27:07;;;;;;;;;;;21.30;58.40;;;;;;1577768;74;1938;-74
2022/12/11 05:29:09;;;;;;;;;;;21.30;58.40;;;;;;1571603;73;725;-75
2022/12/11 05:31:13;;;;;;;;;;;21.30;58.40;;;;;;1579039;73;736;-74
2022/12/11 05:33:14;;;;;;;;;;;21.30;58.40;;;;;;1579327;74;1156;-75
2022/12/11 05:35:16;;;;;;;;;;;21.20;58.30;;;;;;1557314;74;716;-74
2022/12/11 05:37:18;;;;;;;;;;;21.30;58.40;;;;;;1576126;73;738;-76
2022/12/11 05:39:20;;;;;;;;;;;21.30;58.40;;;;;;1575052;73;695;-75
2022/12/11 05:41:23;;;;;;;;;;;21.30;58.40;;;;;;1576259;74;765;-72
2022/12/11 05:43:25;;;;;;;;;;;21.30;58.40;;;;;;1560519;73;1165;-75
2022/12/11 05:45:27;;;;;;;;;;;21.30;58.40;;;;;;1577200;73;1535;-75
2022/12/11 05:47:28;;;;;;;;;;;21.20;57.80;;;;;;1587234;73;1944;-74
2022/12/11 05:49:30;;;;;;;;;;;21.30;58.00;;;;;;1552456;75;1224;-72
2022/12/11 05:51:35;;;;;;;;;;;21.30;58.00;;;;;;1579856;73;709;-76
2022/12/11 05:53:37;;;;;;;;;;;21.30;58.40;;;;;;1587300;73;1165;-75
2022/12/11 05:55:39;;;;;;;;;;;21.30;58.40;;;;;;1582431;73;756;-75
2022/12/11 05:57:40;;;;;;;;;;;21.30;58.40;;;;;;1571120;73;737;-75
2022/12/11 05:59:42;;;;;;;;;;;21.30;58.40;;;;;;1592238;74;710;-75
2022/12/11 06:01:44;;;;;;;;;;;21.30;58.00;;;;;;1564748;73;737;-74
2022/12/11 06:03:46;;;;;;;;;;;21.30;58.40;;;;;;1582849;73;1135;-74
2022/12/11 06:05:48;;;;;;;;;;;21.30;58.40;;;;;;1563808;73;739;-76
2022/12/11 06:07:50;;;;;;;;;;;21.30;58.40;;;;;;1583557;74;1956;-74
2022/12/11 06:09:52;;;;;;;;;;;21.30;58.40;;;;;;1588106;73;732;-76
2022/12/11 06:11:54;;;;;;;;;;;21.30;58.00;;;;;;1585757;73;697;-73
2022/12/11 06:13:55;;;;;;;;;;;21.30;58.00;;;;;;1581202;74;696;-74
2022/12/11 06:16:01;;;;;;;;;;;21.30;58.00;;;;;;1583497;74;691;-75
2022/12/11 06:18:03;;;;;;;;;;;21.30;58.00;;;;;;1581316;73;721;-75
2022/12/11 06:20:05;;;;;;;;;;;21.30;58.40;;;;;;1571664;74;711;-75
2022/12/11 06:22:07;;;;;;;;;;;21.30;58.00;;;;;;1588814;73;1140;-75
2022/12/11 06:24:09;;;;;;;;;;;21.30;58.00;;;;;;1575570;73;729;-75
2022/12/11 06:26:11;;;;;;;;;;;21.20;57.80;;;;;;1586486;73;734;-74
2022/12/11 06:28:13;;;;;;;;;;;21.20;57.80;;;;;;1582093;73;761;-74
2022/12/11 06:30:15;;;;;;;;;;;21.20;58.30;;;;;;1577492;73;723;-75
2022/12/11 06:32:17;;;;;;;;;;;21.30;57.90;;;;;;1577454;73;1156;-74
2022/12/11 06:34:19;;;;;;;;;;;21.30;58.00;;;;;;1579862;73;746;-75
2022/12/11 06:36:21;;;;;;;;;;;21.30;58.00;;;;;;1584449;74;577;-75
2022/12/11 06:38:23;;;;;;;;;;;21.30;58.00;;;;;;1594157;73;712;-74
2022/12/11 06:40:25;;;;;;;;;;;21.30;58.00;;;;;;1584736;73;731;-75
2022/12/11 06:42:28;;;;;;;;;;;21.30;58.40;;;;;;1579197;73;1426;-76
2022/12/11 06:44:30;;;;;;;;;;;21.30;58.00;;;;;;1579732;74;714;-74
2022/12/11 06:46:32;;;;;;;;;;;21.30;57.90;;;;;;1584274;74;1938;-75
2022/12/11 06:48:34;;;;;;;;;;;21.30;57.90;;;;;;1576217;73;689;-74
2022/12/11 06:50:37;;;;;;;;;;;21.30;57.90;;;;;;1587962;73;727;-75
2022/12/11 06:52:39;;;;;;;;;;;21.30;57.90;;;;;;1587085;73;1143;-75
2022/12/11 06:54:41;;;;;;;;;;;21.30;57.90;;;;;;1588299;73;701;-75
2022/12/11 06:56:43;;;;;;;;;;;21.30;57.90;;;;;;1584644;73;553;-74
2022/12/11 06:58:45;;;;;;;;;;;21.30;57.80;;;;;;1558924;74;698;-75
2022/12/11 07:00:47;;;;;;;;;;;21.30;57.90;;;;;;1575206;73;707;-71
2022/12/11 07:02:50;;;;;;;;;;;21.30;57.90;;;;;;1575872;73;1201;-75
2022/12/11 07:04:52;;;;;;;;;;;21.30;57.90;;;;;;1599679;73;733;-75
2022/12/11 07:06:54;;;;;;;;;;;21.30;57.90;;;;;;1587220;73;1945;-74
2022/12/11 07:08:55;;;;;;;;;;;21.30;57.80;;;;;;1587721;73;699;-75
2022/12/11 07:11:04;;;;;;;;;;;21.30;57.90;;;;;;1565409;73;714;-76
2022/12/11 07:13:06;;;;;;;;;;;21.20;57.80;;;;;;1582616;74;1114;-75
2022/12/11 07:15:08;;;;;;;;;;;21.30;57.80;;;;;;1582547;73;732;-74
2022/12/11 07:17:10;;;;;;;;;;;21.30;57.80;;;;;;1573593;73;738;-75
2022/12/11 07:19:12;;;;;;;;;;;21.30;57.80;;;;;;1569687;73;723;-75
2022/12/11 07:21:14;;;;;;;;;;;21.20;57.70;;;;;;1578143;74;843;-76
2022/12/11 07:23:16;;;;;;;;;;;21.30;57.80;;;;;;1573219;74;1221;-73
2022/12/11 07:25:18;;;;;;;;;;;21.30;57.90;;;;;;1575321;73;704;-73
2022/12/11 07:27:19;;;;;;;;;;;21.30;57.90;;;;;;1569811;73;1931;-74
2022/12/11 07:29:21;;;;;;;;;;;21.30;57.90;;;;;;1574942;73;737;-75
2022/12/11 07:31:23;;;;;;;;;;;21.30;57.90;;;;;;1572243;73;688;-73
2022/12/11 07:33:25;;;;;;;;;;;21.30;57.90;;;;;;1574026;74;1150;-75
2022/12/11 07:35:27;;;;;;;;;;;21.30;57.80;;;;;;1570138;73;742;-74
2022/12/11 07:37:29;;;;;;;;;;;21.30;57.80;;;;;;1571088;73;1437;-73
2022/12/11 07:39:31;;;;;;;;;;;21.20;57.70;;;;;;1574316;73;736;-73
2022/12/11 07:41:33;;;;;;;;;;;21.30;57.90;;;;;;1580004;73;745;-74
2022/12/11 07:43:35;;;;;;;;;;;21.30;57.80;;;;;;1576670;74;1180;-74
2022/12/11 07:45:37;;;;;;;;;;;21.30;57.80;;;;;;1584814;73;599;-75
2022/12/11 07:47:39;;;;;;;;;;;21.30;57.80;;;;;;1580584;73;1950;-76
2022/12/11 07:49:40;;;;;;;;;;;21.20;57.70;;;;;;1578993;73;745;-75
2022/12/11 07:51:42;;;;;;;;;;;21.30;57.80;;;;;;1574285;73;738;-74
2022/12/11 07:53:44;;;;;;;;;;;21.30;57.80;;;;;;1579583;73;1143;-75
2022/12/11 07:55:46;;;;;;;;;;;21.30;57.80;;;;;;1585589;73;758;-74
2022/12/11 07:57:48;;;;;;;;;;;21.30;57.80;;;;;;1582160;73;801;-74
2022/12/11 07:59:50;;;;;;;;;;;21.30;57.80;;;;;;1570799;74;761;-72
2022/12/11 08:01:52;;;;;;;;;;;21.20;57.70;;;;;;1566146;73;729;-74
2022/12/11 08:03:54;;;;;;;;;;;21.30;57.80;;;;;;1565102;73;1170;-74
2022/12/11 08:05:56;;;;;;;;;;;21.30;57.80;;;;;;1579094;74;758;-74
2022/12/11 08:07:58;;;;;;;;;;;21.30;57.80;;;;;;1572154;74;1926;-75
2022/12/11 08:09:59;;;;;;;;;;;21.30;57.80;;;;;;1582633;73;713;-75
2022/12/11 08:12:01;;;;;;;;;;;21.30;57.80;;;;;;1580650;73;1139;-74
2022/12/11 08:14:05;;;;;;;;;;;21.30;57.80;;;;;;1577664;74;732;-73
2022/12/11 08:16:07;;;;;;;;;;;21.30;57.80;;;;;;1576492;74;783;-75
2022/12/11 08:18:09;;;;;;;;;;;21.20;57.60;;;;;;1566820;74;747;-74
2022/12/11 08:20:11;;;;;;;;;;;21.30;57.70;;;;;;1571202;73;693;-75
2022/12/11 08:22:13;;;;;;;;;;;21.20;57.60;;;;;;1570129;74;1131;-74
2022/12/11 08:24:19;;;;;;;;;;;21.30;57.80;;;;;;1574234;73;704;-75
2022/12/11 08:26:20;;;;;;;;;;;21.20;57.60;;;;;;1575235;73;1564;-75
2022/12/11 08:28:22;;;;;;;;;;;21.20;57.60;;;;;;1571622;74;1952;-74
2022/12/11 08:30:24;;;;;;;;;;;21.20;57.60;;;;;;1564753;73;745;-75
2022/12/11 08:32:26;;;;;;;;;;;21.30;57.80;;;;;;1581733;74;1154;-74
2022/12/11 08:34:28;;;;;;;;;;;21.20;57.60;;;;;;1576044;73;1639;-75
2022/12/11 08:36:30;;;;;;;;;;;21.30;57.70;;;;;;1572450;73;749;-73
2022/12/11 08:38:32;;;;;;;;;;;21.30;57.70;;;;;;1571939;74;803;-72
2022/12/11 08:40:33;;;;;;;;;;;21.20;57.60;;;;;;1574429;74;708;-73
2022/12/11 08:42:35;;;;;;;;;;;21.30;57.70;;;;;;1573680;74;1164;-72
2022/12/11 08:44:37;;;;;;;;;;;21.30;57.70;;;;;;1571605;73;719;-72
2022/12/11 08:46:39;;;;;;;;;;;21.30;57.70;;;;;;1568624;73;718;-74
2022/12/11 08:48:41;;;;;;;;;;;21.30;57.70;;;;;;1576024;74;1962;-72
2022/12/11 08:50:43;;;;;;;;;;;21.30;57.60;;;;;;1575246;73;727;-76
2022/12/11 08:52:45;;;;;;;;;;;21.30;57.60;;;;;;1574199;70;228907;-70
2022/12/11 08:54:47;;;;;;;;;;;21.30;57.70;;;;;;1603429;73;543;-70
2022/12/11 08:56:49;;;;;;;;;;;21.30;57.60;;;;;;1601492;72;716;-70
2022/12/11 08:58:51;;;;;;;;;;;21.30;57.70;;;;;;1600053;72;721;-71
2022/12/11 09:00:53;;;;;;;;;;;21.30;57.70;;;;;;1589362;73;750;-70
2022/12/11 09:02:54;;;;;;;;;;;21.30;57.60;;;;;;1596115;73;1266;-70
2022/12/11 09:04:56;;;;;;;;;;;21.30;57.60;;;;;;1582707;73;606;-69
2022/12/11 09:06:58;;;;;;;;;;;21.30;57.60;;;;;;1578936;73;684;-71
2022/12/11 09:09:00;;;;;;;;;;;21.30;57.60;;;;;;1590044;74;1945;-70
2022/12/11 09:11:03;;;;;;;;;;;21.30;57.60;;;;;;1583375;74;715;-70
2022/12/11 09:13:05;;;;;;;;;;;21.20;57.50;;;;;;1580786;74;1113;-67
2022/12/11 09:15:07;;;;;;;;;;;21.30;57.60;;;;;;1580379;74;604;-73
2022/12/11 09:17:09;;;;;;;;;;;21.30;57.60;;;;;;1588617;74;778;-71
2022/12/11 09:19:12;;;;;;;;;;;21.30;57.60;;;;;;1591399;74;708;-70
2022/12/11 09:21:16;;;;;;;;;;;21.30;57.60;;;;;;1587944;73;762;-70
2022/12/11 09:23:18;;;;;;;;;;;21.30;57.60;;;;;;1584387;73;1131;-71
2022/12/11 09:25:19;;;;;;;;;;;21.30;57.60;;;;;;1579280;74;744;-71
2022/12/11 09:27:22;;;;;;;;;;;21.30;57.60;;;;;;1592039;74;1933;-70
2022/12/11 09:29:24;;;;;;;;;;;21.30;57.60;;;;;;1579696;74;704;-72
2022/12/11 09:31:29;;;;;;;;;;;21.30;57.60;;;;;;1581049;74;1573;-72
2022/12/11 09:33:31;;;;;;;;;;;21.30;57.50;;;;;;1576797;74;1067;-70
2022/12/11 09:35:33;;;;;;;;;;;21.30;57.40;;;;;;1578356;74;660;-70
2022/12/11 09:37:35;;;;;;;;;;;21.30;57.50;;;;;;1581231;74;670;-71
2022/12/11 09:39:37;;;;;;;;;;;21.40;57.40;;;;;;1582111;73;698;-71
2022/12/11 09:41:39;;;;;;;;;;;21.40;57.50;;;;;;1575697;73;645;-73
2022/12/11 09:43:46;;;;;;;;;;;21.40;57.40;;;;;;1580161;74;1160;-72
2022/12/11 09:45:48;;;;;;;;;;;21.40;57.40;;;;;;1587968;74;983;-71
2022/12/11 09:47:51;;;;;;;;;;;21.40;57.40;;;;;;1584953;73;1931;-71
2022/12/11 09:49:54;;;;;;;;;;;21.40;57.40;;;;;;1570501;74;710;-70
2022/12/11 09:52:13;;;;;;;;;;;21.40;57.40;;;;;;1581584;74;1109;-70
2022/12/11 09:54:15;;;;;;;;;;;21.40;57.30;;;;;;1579214;74;1466;-71
2022/12/11 09:56:18;;;;;;;;;;;21.40;57.30;;;;;;1582665;74;846;-70
2022/12/11 09:58:24;;;;;;;;;;;21.40;57.30;;;;;;1575504;73;666;-71
2022/12/11 10:00:33;;;;;;;;;;;21.40;57.30;;;;;;1578407;74;742;-70
2022/12/11 10:02:53;;;;;;;;;;;21.40;57.30;;;;;;1578542;74;2227;-72
2022/12/11 10:04:57;;;;;;;;;;;21.40;57.30;;;;;;1585481;73;790;-72
2022/12/11 10:07:15;;;;;;;;;;;21.40;57.30;;;;;;1578693;74;603;-72
2022/12/11 10:09:25;;;;;;;;;;;21.40;57.30;;;;;;1570095;74;1936;-71
2022/12/11 10:11:34;;;;;;;;;;;21.40;57.30;;;;;;1571382;74;726;-71
2022/12/11 10:13:56;;;;;;;;;;;21.30;57.30;;;;;;1568013;74;1106;-72
2022/12/11 10:16:00;;;;;;;;;;;21.40;57.30;;;;;;1567397;74;1158;-72
2022/12/11 10:18:01;;;;;;;;;;;21.40;57.30;;;;;;1574246;74;1049;-73
2022/12/11 10:20:05;;;;;;;;;;;21.40;57.20;;;;;;1581058;73;723;-71
2022/12/11 10:22:08;;;;;;;;;;;21.40;57.20;;;;;;1566183;74;1097;-71
2022/12/11 10:24:27;;;;;;;;;;;21.40;57.20;;;;;;1581955;72;1682;-72
2022/12/11 10:26:29;;;;;;;;;;;21.40;57.10;;;;;;1575285;74;1518;-71
2022/12/11 10:28:31;;;;;;;;;;;21.40;57.10;;;;;;1574930;74;1942;-71
2022/12/11 10:30:35;;;;;;;;;;;21.40;57.10;;;;;;1579753;74;725;-71
2022/12/11 10:32:38;;;;;;;;;;;21.40;57.00;;;;;;1574773;74;1177;-70
2022/12/11 10:34:41;;;;;;;;;;;21.40;57.00;;;;;;1574889;73;1130;-71
2022/12/11 10:36:44;;;;;;;;;;;21.40;57.00;;;;;;1572864;73;646;-72
2022/12/11 10:38:46;;;;;;;;;;;21.40;57.00;;;;;;1576024;73;738;-70
2022/12/11 10:40:58;;;;;;;;;;;21.40;56.90;;;;;;1575880;74;742;-71
2022/12/11 10:43:00;;;;;;;;;;;21.40;56.90;;;;;;1574141;74;1195;-72
2022/12/11 10:45:03;;;;;;;;;;;21.40;56.80;;;;;;1576376;73;776;-71
2022/12/11 10:47:06;;;;;;;;;;;21.50;57.00;;;;;;1571465;74;731;-71
2022/12/11 10:49:09;;;;;;;;;;;21.40;56.90;;;;;;1579456;74;1942;-71
2022/12/11 10:51:11;;;;;;;;;;;21.40;56.80;;;;;;1584716;73;1061;-71
2022/12/11 10:53:18;;;;;;;;;;;21.40;56.80;;;;;;1575711;74;1129;-71
2022/12/11 10:55:21;;;;;;;;;;;21.50;56.90;;;;;;1577288;74;1024;-71
2022/12/11 10:57:27;;;;;;;;;;;21.50;56.90;;;;;;1581569;73;649;-71
2022/12/11 10:59:31;;;;;;;;;;;21.40;56.90;;;;;;1582454;74;865;-70
2022/12/11 11:01:33;;;;;;;;;;;21.40;57.00;;;;;;1587368;74;571;-72
2022/12/11 11:03:35;;;;;;;;;;;21.40;57.00;;;;;;1587689;73;1240;-71
2022/12/11 11:05:37;;;;;;;;;;;21.40;57.00;;;;;;1588235;74;815;-70
2022/12/11 11:07:39;;;;;;;;;;;21.40;57.10;;;;;;1588424;74;675;-71
2022/12/11 11:09:41;;;;;;;;;;;21.40;57.00;;;;;;1579617;74;1922;-70
2022/12/11 11:11:44;;;;;;;;;;;21.50;57.20;;;;;;1576379;74;758;-70
2022/12/11 11:13:46;;;;;;;;;;;21.40;57.00;;;;;;1587218;74;1148;-69
2022/12/11 11:15:48;;;;;;;;;;;21.50;57.10;;;;;;1588262;74;643;-71
2022/12/11 11:17:52;;;;;;;;;;;21.40;57.00;;;;;;1582774;74;790;-72
2022/12/11 11:19:53;;;;;;;;;;;21.40;56.90;;;;;;1576653;74;780;-69
2022/12/11 11:22:00;;;;;;;;;;;21.50;57.10;;;;;;1585939;74;725;-69
2022/12/11 11:24:02;;;;;;;;;;;21.40;56.90;;;;;;1597085;72;1111;-70
2022/12/11 11:26:06;;;;;;;;;;;21.50;57.00;;;;;;1590956;74;737;-70
2022/12/11 11:28:08;;;;;;;;;;;21.40;56.90;;;;;;1575424;74;1926;-69
2022/12/11 11:30:15;;;;;;;;;;;21.50;57.10;;;;;;1588713;74;703;-70
2022/12/11 11:32:19;;;;;;;;;;;21.50;57.00;;;;;;1589983;74;1105;-70
2022/12/11 11:34:21;;;;;;;;;;;21.50;56.90;;;;;;1593580;73;1075;-70
2022/12/11 11:36:24;;;;;;;;;;;21.50;56.90;;;;;;1576174;74;699;-71
2022/12/11 11:38:32;;;;;;;;;;;21.60;56.90;;;;;;1590947;74;703;-70
2022/12/11 11:40:39;;;;;;;;;;;21.50;56.80;;;;;;1583985;74;748;-72
2022/12/11 11:42:43;;;;;;;;;;;21.50;56.80;;;;;;1594560;73;1214;-72
2022/12/11 11:44:49;;;;;;;;;;;21.50;56.90;;;;;;1581948;74;601;-71
2022/12/11 11:47:05;;;;;;;;;;;21.50;56.80;;;;;;1576136;74;1119;-70
2022/12/11 11:49:14;;;;;;;;;;;21.50;56.80;;;;;;1580821;74;1926;-71
2022/12/11 11:51:21;;;;;;;;;;;21.50;56.80;;;;;;1584222;74;791;-71
2022/12/11 11:53:24;;;;;;;;;;;21.50;56.70;;;;;;1596612;73;1824;-71
2022/12/11 11:55:31;;;;;;;;;;;21.50;56.70;;;;;;1585141;74;1530;-71
2022/12/11 11:57:37;;;;;;;;;;;21.50;56.60;;;;;;1572862;74;941;-70
2022/12/11 11:59:46;;;;;;;;;;;21.50;56.70;;;;;;1577906;74;1599;-70
2022/12/11 12:01:48;;;;;;;;;;;21.50;56.60;;;;;;1594290;73;927;-71
2022/12/11 12:03:50;;;;;;;;;;;21.50;56.60;;;;;;1584385;74;1131;-71
2022/12/11 12:06:11;;;;;;;;;;;21.50;56.60;;;;;;1575902;74;772;-72
2022/12/11 12:08:13;;;;;;;;;;;21.50;56.70;;;;;;1576029;74;704;-71
2022/12/11 12:10:22;;;;;;;;;;;21.50;56.50;;;;;;1585887;74;719;-70
2022/12/11 12:12:29;;;;;;;;;;;21.50;56.60;;;;;;1582628;72;1127;-68
2022/12/11 12:14:38;;;;;;;;;;;21.50;56.60;;;;;;1580296;74;1101;-72
2022/12/11 12:16:51;;;;;;;;;;;21.50;56.60;;;;;;1585195;74;988;-68
2022/12/11 12:18:57;;;;;;;;;;;21.50;56.60;;;;;;1584051;74;1298;-70
2022/12/11 12:21:01;;;;;;;;;;;21.50;56.50;;;;;;1587754;74;1134;-72
2022/12/11 12:23:23;;;;;;;;;;;21.50;56.50;;;;;;1576045;74;1117;-69
2022/12/11 12:25:45;;;;;;;;;;;21.50;56.50;;;;;;1584479;74;1145;-70
2022/12/11 12:27:51;;;;;;;;;;;21.50;56.50;;;;;;1577740;74;688;-70